Time;durP1;ratioP1;P1;durP2;ratioP2;P2;SDS_P1;SDS_P2;PMS_P1;PMS_P2;Temp;Humidity;BMP_temperature;BMP_pressure;BME280_temperature;BME280_humidity;BME280_pressure;Samples;Min_cycle;Max_cycle;Signal;HPM_P1;HPM_P2
2021/12/07 00:02:57;;;;;;;31.70;23.33;;;1.00;49.40;;;;;;6246190;28;20263;-55
2021/12/07 00:06:01;;;;;;;26.70;21.33;;;1.70;49.10;;;;;;6260414;28;20869;-54
2021/12/07 00:09:06;;;;;;;30.23;21.57;;;1.60;47.90;;;;;;6262858;28;20234;-57
2021/12/07 00:12:09;;;;;;;32.03;22.57;;;1.70;46.60;;;;;;6262813;28;20245;-54
2021/12/07 00:15:16;;;;;;;31.53;22.43;;;1.80;45.30;;;;;;6251286;28;20297;-54
2021/12/07 00:18:19;;;;;;;30.53;22.50;;;1.60;47.00;;;;;;6246509;28;20517;-55
2021/12/07 00:21:23;;;;;;;33.40;22.80;;;1.50;47.30;;;;;;6260810;28;20319;-55
2021/12/07 00:24:26;;;;;;;30.50;22.03;;;1.30;46.20;;;;;;6247545;28;20270;-54
2021/12/07 00:27:29;;;;;;;33.53;22.80;;;1.20;47.90;;;;;;6252197;28;20757;-55
2021/12/07 00:30:33;;;;;;;31.67;22.87;;;1.20;48.50;;;;;;6235919;28;20616;-54
2021/12/07 00:33:44;;;;;;;32.30;23.07;;;0.90;50.90;;;;;;6236697;28;20314;-55
2021/12/07 00:36:49;;;;;;;34.80;22.80;;;1.10;51.70;;;;;;6237264;28;20365;-54
2021/12/07 00:39:52;;;;;;;28.13;20.73;;;1.20;51.00;;;;;;6239690;28;20384;-56
2021/12/07 00:42:54;;;;;;;31.40;21.73;;;1.10;49.10;;;;;;6257957;28;20596;-55
2021/12/07 00:45:58;;;;;;;30.90;21.20;;;1.10;48.90;;;;;;6252256;28;20810;-55
2021/12/07 00:49:02;;;;;;;28.03;20.77;;;0.90;48.90;;;;;;6219729;28;20833;-54
2021/12/07 00:52:07;;;;;;;29.80;21.40;;;1.00;50.40;;;;;;6238722;28;20269;-56
2021/12/07 00:55:12;;;;;;;27.37;21.30;;;1.00;49.80;;;;;;6236190;28;20858;-55
2021/12/07 00:58:19;;;;;;;27.87;20.87;;;0.80;49.80;;;;;;6236525;28;20235;-55
2021/12/07 01:01:23;;;;;;;26.80;21.17;;;0.90;49.90;;;;;;6240858;28;20272;-55
2021/12/07 01:04:28;;;;;;;29.93;21.43;;;0.90;50.00;;;;;;6251689;28;20237;-55
2021/12/07 01:07:52;;;;;;;28.90;21.13;;;0.90;50.90;;;;;;6261922;28;20234;-54
2021/12/07 01:27:42;;;;;;;25.37;19.57;;;0.90;50.00;;;;;;6258072;28;20296;-55
2021/12/07 01:30:55;;;;;;;31.17;21.07;;;0.80;49.90;;;;;;6235578;28;20315;-54
2021/12/07 01:34:19;;;;;;;29.83;20.07;;;0.70;49.40;;;;;;6256402;28;20744;-56
2021/12/07 01:37:35;;;;;;;26.20;19.63;;;0.60;50.20;;;;;;6260838;28;20309;-55
2021/12/07 01:40:57;;;;;;;26.30;19.57;;;0.70;50.40;;;;;;6259024;28;20619;-55
2021/12/07 01:44:20;;;;;;;24.83;19.83;;;0.60;49.70;;;;;;6234702;28;20235;-55
2021/12/07 01:47:47;;;;;;;26.33;19.70;;;0.80;50.60;;;;;;6238779;28;20283;-55
2021/12/07 01:51:04;;;;;;;24.53;19.60;;;0.60;50.30;;;;;;6231429;28;20779;-56
2021/12/07 01:57:55;;;;;;;26.60;19.83;;;0.60;51.10;;;;;;6236291;28;20316;-55
2021/12/07 02:01:00;;;;;;;24.83;19.23;;;0.60;50.90;;;;;;6240544;28;20256;-55
2021/12/07 02:04:03;;;;;;;23.93;19.93;;;0.30;51.50;;;;;;6258508;28;20245;-55
2021/12/07 02:07:07;;;;;;;26.80;19.97;;;0.50;51.30;;;;;;6265621;28;20613;-55
2021/12/07 02:10:15;;;;;;;27.13;19.97;;;0.30;52.10;;;;;;6265008;28;20320;-55
2021/12/07 02:14:02;;;;;;;27.93;20.23;;;0.40;52.20;;;;;;6247240;28;20853;-55
2021/12/07 02:16:46;;;;;;;25.60;19.33;;;0.20;51.40;;;;;;6242190;28;20580;-58
2021/12/07 02:19:49;;;;;;;28.17;20.33;;;0.20;51.80;;;;;;6257114;28;20557;-55
2021/12/07 02:22:53;;;;;;;27.33;19.20;;;0.30;51.30;;;;;;6262767;28;20241;-56
2021/12/07 02:25:56;;;;;;;26.90;19.43;;;0.10;50.90;;;;;;6264510;28;20861;-56
2021/12/07 02:29:00;;;;;;;23.37;18.93;;;0.00;51.00;;;;;;6251588;28;20260;-56
2021/12/07 02:32:04;;;;;;;28.93;19.77;;;0.20;51.20;;;;;;6239854;28;20720;-55
2021/12/07 02:35:11;;;;;;;24.57;18.77;;;0.20;51.50;;;;;;6240256;28;20777;-54
2021/12/07 02:38:15;;;;;;;26.27;19.57;;;0.20;51.90;;;;;;6242759;28;20265;-55
2021/12/07 02:41:18;;;;;;;26.27;19.43;;;0.20;50.30;;;;;;6256181;28;20493;-55
2021/12/07 02:44:20;;;;;;;25.13;19.47;;;0.10;49.80;;;;;;6249013;28;20377;-55
2021/12/07 02:47:23;;;;;;;24.83;18.93;;;0.30;50.00;;;;;;6241888;28;20246;-55
2021/12/07 02:50:26;;;;;;;29.57;19.40;;;0.30;48.90;;;;;;6248220;28;20239;-55
2021/12/07 02:53:32;;;;;;;24.80;18.30;;;0.30;49.00;;;;;;6240742;28;20265;-55
2021/12/07 02:56:35;;;;;;;24.77;18.23;;;0.30;49.40;;;;;;6239935;28;20234;-54
2021/12/07 02:59:41;;;;;;;24.03;19.20;;;0.30;48.00;;;;;;6230015;28;20750;-55
2021/12/07 03:02:50;;;;;;;25.93;19.93;;;0.30;48.30;;;;;;6239322;28;20312;-55
2021/12/07 03:06:04;;;;;;;25.07;19.13;;;0.10;48.80;;;;;;6238941;28;20647;-55
2021/12/07 03:09:44;;;;;;;24.30;17.43;;;0.20;48.90;;;;;;6238384;28;20260;-55
2021/12/07 03:26:11;;;;;;;29.00;20.23;;;0.00;51.80;;;;;;6259066;28;20332;-54
2021/12/07 03:29:14;;;;;;;30.97;20.57;;;0.00;51.50;;;;;;6228192;28;20276;-55
2021/12/07 03:32:17;;;;;;;29.33;20.23;;;0.00;51.50;;;;;;6237002;28;20242;-55
2021/12/07 03:35:20;;;;;;;28.53;20.43;;;0.00;51.70;;;;;;6237732;28;20325;-53
2021/12/07 03:38:23;;;;;;;28.73;22.07;;;0.20;52.60;;;;;;6232081;28;20245;-55
2021/12/07 03:41:27;;;;;;;30.90;22.23;;;0.10;52.50;;;;;;6237599;28;20243;-55
2021/12/07 03:44:30;;;;;;;28.97;21.00;;;0.10;52.50;;;;;;6237212;28;20306;-56
2021/12/07 03:47:33;;;;;;;32.37;21.20;;;0.00;53.20;;;;;;6233370;28;20329;-54
2021/12/07 03:50:36;;;;;;;32.03;22.77;;;0.10;53.40;;;;;;6247922;28;20686;-55
2021/12/07 03:53:39;;;;;;;29.90;22.40;;;0.00;53.70;;;;;;6265465;28;20340;-55
2021/12/07 03:56:43;;;;;;;28.50;21.50;;;0.10;53.00;;;;;;6232549;28;20314;-55
2021/12/07 03:59:46;;;;;;;29.13;21.07;;;0.30;53.20;;;;;;6232985;28;20228;-55
2021/12/07 04:02:50;;;;;;;28.60;21.93;;;0.30;53.00;;;;;;6229169;28;20270;-55
2021/12/07 04:05:56;;;;;;;34.20;23.07;;;0.20;52.30;;;;;;6237304;28;20238;-55
2021/12/07 04:08:59;;;;;;;30.60;21.63;;;0.40;52.00;;;;;;6237185;28;20246;-53
2021/12/07 04:12:04;;;;;;;32.87;23.40;;;0.30;52.70;;;;;;6217483;28;20253;-54
2021/12/07 04:15:10;;;;;;;34.43;23.83;;;0.40;52.40;;;;;;6211632;28;20699;-55
2021/12/07 04:18:13;;;;;;;32.23;22.57;;;0.50;52.20;;;;;;6235158;28;20237;-55
2021/12/07 04:21:16;;;;;;;31.93;23.70;;;0.30;51.70;;;;;;6238451;28;20419;-54
2021/12/07 04:24:19;;;;;;;29.77;22.10;;;0.10;50.70;;;;;;6235961;28;20273;-55
2021/12/07 04:27:23;;;;;;;34.50;24.17;;;0.40;50.80;;;;;;6211529;28;20258;-55
2021/12/07 04:30:27;;;;;;;29.80;22.20;;;0.40;51.90;;;;;;6235404;28;20231;-54
2021/12/07 04:33:30;;;;;;;29.47;21.93;;;0.50;50.70;;;;;;6218340;28;20230;-55
2021/12/07 04:36:34;;;;;;;33.90;23.53;;;0.50;50.60;;;;;;6234651;28;20242;-55
2021/12/07 04:39:37;;;;;;;32.37;22.67;;;0.40;50.30;;;;;;6231600;28;20244;-56
2021/12/07 04:42:42;;;;;;;31.40;23.60;;;0.40;50.50;;;;;;6225225;28;20286;-58
2021/12/07 04:45:57;;;;;;;31.63;22.03;;;0.50;50.20;;;;;;6218745;28;20265;-55
2021/12/07 04:59:02;;;;;;;32.83;23.33;;;0.60;48.50;;;;;;6229917;28;20682;-55
2021/12/07 05:02:05;;;;;;;33.10;22.97;;;0.50;48.90;;;;;;6231540;28;20608;-55
2021/12/07 05:05:11;;;;;;;32.37;23.43;;;0.40;49.00;;;;;;6232384;28;20813;-56
2021/12/07 05:08:16;;;;;;;33.33;23.27;;;0.50;49.50;;;;;;6232284;28;20270;-55
2021/12/07 05:11:33;;;;;;;30.23;22.93;;;0.60;49.70;;;;;;6234062;28;20238;-55
2021/12/07 05:14:40;;;;;;;37.30;24.20;;;0.60;48.60;;;;;;6228734;28;20657;-56
2021/12/07 05:18:00;;;;;;;35.33;23.63;;;0.60;50.00;;;;;;6227088;28;20597;-56
2021/12/07 05:24:24;;;;;;;32.97;23.97;;;0.50;49.70;;;;;;6221407;28;20716;-55
2021/12/07 05:37:47;;;;;;;36.73;23.50;;;0.50;48.60;;;;;;6227667;28;20381;-55
2021/12/07 05:40:50;;;;;;;34.73;24.23;;;0.30;49.90;;;;;;6226522;28;20231;-55
2021/12/07 05:43:53;;;;;;;35.57;24.83;;;0.20;49.10;;;;;;6226261;28;20297;-56
2021/12/07 05:46:57;;;;;;;37.87;24.43;;;0.20;50.60;;;;;;6234091;28;20242;-55
2021/12/07 05:50:00;;;;;;;37.60;25.57;;;0.10;50.20;;;;;;6231483;28;20309;-55
2021/12/07 05:53:03;;;;;;;36.50;25.70;;;0.00;50.70;;;;;;6229034;28;20295;-55
2021/12/07 05:56:06;;;;;;;33.40;24.50;;;0.30;49.80;;;;;;6232667;28;20235;-55
2021/12/07 05:59:09;;;;;;;34.17;25.33;;;0.10;49.60;;;;;;6232588;28;20634;-55
2021/12/07 06:02:13;;;;;;;37.33;25.57;;;0.20;50.00;;;;;;6225070;28;20417;-55
2021/12/07 06:05:16;;;;;;;33.23;24.70;;;0.10;50.20;;;;;;6231835;28;20585;-55
2021/12/07 06:08:19;;;;;;;39.57;26.00;;;0.20;50.40;;;;;;6233589;28;20305;-54
2021/12/07 06:11:24;;;;;;;40.03;26.07;;;0.30;51.60;;;;;;6230275;28;20295;-54
2021/12/07 06:14:32;;;;;;;42.43;26.77;;;0.30;50.90;;;;;;6233294;28;20325;-56
2021/12/07 06:17:36;;;;;;;39.27;26.67;;;-0.10;51.60;;;;;;6220102;28;20456;-55
2021/12/07 06:20:41;;;;;;;35.60;25.47;;;0.10;50.40;;;;;;6232457;28;20238;-55
2021/12/07 06:23:46;;;;;;;37.30;26.20;;;0.10;51.30;;;;;;6227594;28;20332;-53
2021/12/07 06:26:49;;;;;;;38.20;27.17;;;0.00;50.20;;;;;;6232294;28;20249;-53
2021/12/07 06:29:52;;;;;;;38.53;26.87;;;0.00;50.80;;;;;;6224812;28;20293;-55
2021/12/07 06:32:56;;;;;;;43.87;28.10;;;-0.10;50.30;;;;;;6228497;28;20245;-54
2021/12/07 06:36:02;;;;;;;40.57;27.23;;;0.10;50.50;;;;;;6229248;28;20302;-55
2021/12/07 06:39:07;;;;;;;42.60;27.03;;;-0.10;51.10;;;;;;6227503;28;20234;-55
2021/12/07 06:42:09;;;;;;;42.77;27.90;;;-0.10;51.00;;;;;;6225075;28;20230;-55
2021/12/07 06:45:13;;;;;;;39.30;26.83;;;-0.10;50.10;;;;;;6234458;28;20329;-58
2021/12/07 06:48:17;;;;;;;40.47;27.80;;;0.10;50.40;;;;;;6232437;28;20378;-54
2021/12/07 06:51:20;;;;;;;45.60;28.10;;;0.00;49.10;;;;;;6231385;28;20698;-55
2021/12/07 06:54:22;;;;;;;41.17;27.67;;;0.00;49.70;;;;;;6236679;28;20227;-55
2021/12/07 06:57:25;;;;;;;43.27;29.57;;;-0.30;49.80;;;;;;6237191;28;20303;-55
2021/12/07 07:00:28;;;;;;;41.63;27.43;;;-0.10;49.50;;;;;;6237059;28;20744;-56
2021/12/07 07:03:33;;;;;;;43.27;27.80;;;-0.20;49.80;;;;;;6235206;28;20634;-55
2021/12/07 07:06:36;;;;;;;40.13;27.67;;;0.10;50.40;;;;;;6225912;28;20253;-55
2021/12/07 07:09:39;;;;;;;44.13;28.97;;;0.00;49.20;;;;;;6230919;28;20325;-55
2021/12/07 07:12:46;;;;;;;44.37;28.47;;;0.00;49.70;;;;;;6236893;28;20316;-55
2021/12/07 07:15:49;;;;;;;44.17;27.50;;;-0.20;49.50;;;;;;6237581;28;20273;-54
2021/12/07 07:18:53;;;;;;;47.33;29.07;;;-0.20;50.00;;;;;;6225765;28;20878;-55
2021/12/07 07:21:58;;;;;;;42.57;28.90;;;-0.10;50.20;;;;;;6237908;28;20347;-56
2021/12/07 07:25:01;;;;;;;45.40;28.73;;;0.00;49.80;;;;;;6233767;28;20227;-55
2021/12/07 07:28:04;;;;;;;43.80;27.33;;;0.20;50.50;;;;;;6237054;28;20351;-56
2021/12/07 07:31:09;;;;;;;40.77;29.33;;;0.00;48.80;;;;;;6233706;28;20231;-55
2021/12/07 07:34:14;;;;;;;42.77;27.90;;;0.00;49.30;;;;;;6232595;28;20226;-54
2021/12/07 07:37:17;;;;;;;45.13;28.07;;;0.20;48.50;;;;;;6230987;28;20654;-55
2021/12/07 07:40:22;;;;;;;42.87;26.70;;;0.00;48.30;;;;;;6237151;28;20734;-56
2021/12/07 07:43:25;;;;;;;43.13;29.10;;;0.10;47.30;;;;;;6237169;28;20243;-55
2021/12/07 07:46:28;;;;;;;39.70;27.83;;;0.10;48.80;;;;;;6232892;28;20239;-56
2021/12/07 07:49:32;;;;;;;40.60;26.73;;;0.20;47.40;;;;;;6231606;28;20235;-54
2021/12/07 07:52:36;;;;;;;40.50;26.97;;;0.00;48.60;;;;;;6232993;28;20340;-55
2021/12/07 07:55:42;;;;;;;38.57;26.10;;;0.50;48.40;;;;;;6236438;28;20775;-55
2021/12/07 07:58:45;;;;;;;42.13;26.10;;;0.40;46.70;;;;;;6235469;28;20335;-56
2021/12/07 08:01:48;;;;;;;38.30;27.13;;;0.50;46.60;;;;;;6235155;28;20325;-55
2021/12/07 08:04:52;;;;;;;41.07;26.13;;;0.30;46.80;;;;;;6236343;28;20313;-55
2021/12/07 08:07:55;;;;;;;37.03;26.00;;;0.20;45.30;;;;;;6234823;28;20647;-56
2021/12/07 08:10:57;;;;;;;37.93;25.83;;;0.40;45.60;;;;;;6236861;28;20389;-55
2021/12/07 08:14:00;;;;;;;39.00;26.47;;;0.30;45.80;;;;;;6235037;28;20230;-54
2021/12/07 08:17:04;;;;;;;35.33;24.27;;;0.60;45.70;;;;;;6232905;28;20234;-55
2021/12/07 08:20:10;;;;;;;34.60;23.80;;;0.40;44.40;;;;;;6228718;28;20238;-55
2021/12/07 08:23:13;;;;;;;38.67;25.63;;;0.70;45.70;;;;;;6237456;28;20273;-55
2021/12/07 08:26:18;;;;;;;39.70;25.93;;;0.50;43.10;;;;;;6233841;28;20304;-55
2021/12/07 08:29:24;;;;;;;35.10;24.80;;;0.40;44.30;;;;;;6234220;28;20253;-56
2021/12/07 08:32:27;;;;;;;37.93;24.87;;;0.60;43.80;;;;;;6233264;28;20390;-55
2021/12/07 08:35:31;;;;;;;32.97;24.37;;;0.70;43.50;;;;;;6233839;28;20300;-55
2021/12/07 08:38:34;;;;;;;36.43;24.73;;;0.70;42.60;;;;;;6234545;28;20360;-55
2021/12/07 08:41:37;;;;;;;37.80;25.63;;;0.80;44.00;;;;;;6230175;28;20238;-53
2021/12/07 08:44:40;;;;;;;31.13;23.90;;;0.80;43.00;;;;;;6235141;28;20372;-53
2021/12/07 08:47:44;;;;;;;37.00;25.03;;;0.80;42.30;;;;;;6235014;28;20234;-55
2021/12/07 08:50:48;;;;;;;35.17;24.43;;;0.70;42.70;;;;;;6233884;28;20570;-54
2021/12/07 08:53:56;;;;;;;35.70;24.43;;;0.90;41.20;;;;;;6228755;28;20234;-55
2021/12/07 09:00:19;;;;;;;36.87;25.03;;;1.10;39.10;;;;;;6234595;28;20733;-54
2021/12/07 09:03:22;;;;;;;36.77;24.40;;;1.00;39.40;;;;;;6235572;28;20317;-54
2021/12/07 09:06:27;;;;;;;34.07;24.10;;;0.90;38.90;;;;;;6233658;28;20242;-56
2021/12/07 09:09:30;;;;;;;35.47;24.43;;;0.80;39.30;;;;;;6233376;28;20254;-55
2021/12/07 09:12:33;;;;;;;37.27;24.93;;;0.90;38.30;;;;;;6231749;28;20253;-56
2021/12/07 09:15:36;;;;;;;32.33;23.60;;;0.90;39.30;;;;;;6223956;28;20489;-56
2021/12/07 09:18:39;;;;;;;35.83;24.37;;;0.80;38.10;;;;;;6225933;28;20234;-54
2021/12/07 09:21:44;;;;;;;33.50;23.77;;;0.90;36.80;;;;;;6235156;28;20234;-54
2021/12/07 09:24:46;;;;;;;33.33;24.30;;;0.80;37.90;;;;;;6226643;28;20255;-55
2021/12/07 09:27:50;;;;;;;31.70;23.77;;;1.10;38.40;;;;;;6235600;28;20726;-55
2021/12/07 09:30:54;;;;;;;33.93;23.93;;;1.20;38.90;;;;;;6233763;28;20241;-55
2021/12/07 09:33:57;;;;;;;34.93;24.13;;;1.10;36.80;;;;;;6230206;28;20227;-55
2021/12/07 09:37:01;;;;;;;35.33;24.70;;;1.30;36.80;;;;;;6233545;28;20238;-55
2021/12/07 09:40:06;;;;;;;31.37;23.10;;;1.30;36.50;;;;;;6229899;28;20313;-56
2021/12/07 09:43:09;;;;;;;34.17;23.57;;;1.10;34.80;;;;;;6235906;28;20608;-55
2021/12/07 09:46:13;;;;;;;37.23;24.70;;;1.10;35.10;;;;;;6233238;28;20254;-56
2021/12/07 09:49:17;;;;;;;34.93;25.73;;;1.10;34.60;;;;;;6231045;28;20324;-55
2021/12/07 09:52:21;;;;;;;31.90;24.10;;;1.20;34.40;;;;;;6236070;28;20238;-56
2021/12/07 09:55:25;;;;;;;36.07;25.23;;;1.30;34.50;;;;;;6233834;28;20330;-55
2021/12/07 09:58:28;;;;;;;33.87;24.33;;;1.30;35.20;;;;;;6232063;28;20302;-55
2021/12/07 10:01:32;;;;;;;33.57;24.90;;;1.30;33.80;;;;;;6234869;28;20242;-55
2021/12/07 10:04:36;;;;;;;36.03;23.53;;;1.20;34.30;;;;;;6234196;28;20234;-55
2021/12/07 10:07:40;;;;;;;34.73;24.80;;;1.20;33.70;;;;;;6229275;28;20240;-55
2021/12/07 10:10:44;;;;;;;36.90;26.00;;;1.20;33.70;;;;;;6230187;28;20321;-55
2021/12/07 10:13:51;;;;;;;36.13;24.87;;;1.30;35.60;;;;;;6232654;28;20639;-56
2021/12/07 10:16:54;;;;;;;37.70;24.73;;;1.10;36.60;;;;;;6227214;28;20320;-55
2021/12/07 10:19:57;;;;;;;35.77;25.70;;;1.40;36.70;;;;;;6237626;28;20234;-54
2021/12/07 10:23:23;;;;;;;35.07;24.30;;;1.30;35.60;;;;;;6233449;28;20353;-55
2021/12/07 10:26:28;;;;;;;38.70;25.50;;;1.50;34.70;;;;;;6237092;28;20316;-55
2021/12/07 10:29:31;;;;;;;34.37;23.40;;;1.50;34.60;;;;;;6236614;28;20622;-55
2021/12/07 10:32:34;;;;;;;38.23;25.83;;;1.50;34.10;;;;;;6237945;28;20314;-54
2021/12/07 10:35:38;;;;;;;34.33;24.90;;;1.30;34.30;;;;;;6238249;28;20296;-55
2021/12/07 10:38:46;;;;;;;37.70;25.13;;;1.30;34.30;;;;;;6235017;28;20231;-54
2021/12/07 10:41:52;;;;;;;37.90;26.43;;;1.60;34.80;;;;;;6238360;28;20353;-55
2021/12/07 10:44:55;;;;;;;36.73;24.73;;;1.50;33.50;;;;;;6237774;28;20710;-56
2021/12/07 10:47:58;;;;;;;37.53;26.10;;;1.50;32.50;;;;;;6234735;28;20412;-55
2021/12/07 10:51:10;;;;;;;40.23;26.67;;;1.40;34.40;;;;;;6233069;28;20723;-55
2021/12/07 10:54:21;;;;;;;40.10;27.07;;;1.60;34.00;;;;;;6237005;28;20242;-53
2021/12/07 10:57:26;;;;;;;41.93;26.40;;;1.50;32.70;;;;;;6233926;28;20239;-53
2021/12/07 11:00:32;;;;;;;40.03;26.60;;;1.50;34.30;;;;;;6237363;28;20266;-56
2021/12/07 11:03:36;;;;;;;39.77;26.47;;;1.50;32.20;;;;;;6237863;28;20238;-54
2021/12/07 11:07:05;;;;;;;39.83;26.03;;;1.40;33.20;;;;;;6237366;28;20234;-54
2021/12/07 11:10:16;;;;;;;37.97;26.47;;;1.50;34.30;;;;;;6236540;28;20629;-54
2021/12/07 11:13:23;;;;;;;40.43;27.40;;;1.70;29.10;;;;;;6236801;28;20249;-55
2021/12/07 11:16:26;;;;;;;41.40;27.07;;;1.50;32.80;;;;;;6228491;28;20262;-55
2021/12/07 11:19:30;;;;;;;38.20;26.83;;;1.50;34.50;;;;;;6239416;28;20376;-54
2021/12/07 11:22:36;;;;;;;41.37;26.40;;;1.40;33.70;;;;;;6237713;28;20631;-54
2021/12/07 11:29:39;;;;;;;43.33;28.37;;;1.50;35.60;;;;;;6233554;28;20623;-55
2021/12/07 11:29:40;;;;;;;43.57;28.00;;;1.40;33.90;;;;;;6236126;28;20309;-52
2021/12/07 11:32:48;;;;;;;41.87;27.87;;;1.60;34.00;;;;;;6230646;28;20522;-56
2021/12/07 11:35:51;;;;;;;41.93;27.37;;;1.60;32.40;;;;;;6237435;28;20235;-55
2021/12/07 11:38:55;;;;;;;40.63;27.80;;;1.80;31.70;;;;;;6218499;28;20508;-55
2021/12/07 11:42:02;;;;;;;41.30;27.57;;;1.60;31.70;;;;;;6238358;28;20241;-55
2021/12/07 11:45:11;;;;;;;38.47;26.17;;;1.50;31.70;;;;;;6236627;28;20555;-55
2021/12/07 11:48:14;;;;;;;39.30;26.30;;;1.60;31.20;;;;;;6237409;28;20295;-56
2021/12/07 11:51:21;;;;;;;42.43;27.73;;;1.70;31.20;;;;;;6236717;28;20258;-55
2021/12/07 11:54:27;;;;;;;44.27;26.77;;;1.80;30.50;;;;;;6230146;28;20730;-54
2021/12/07 11:57:32;;;;;;;41.07;26.97;;;1.70;29.90;;;;;;6228643;28;20748;-56
2021/12/07 12:00:38;;;;;;;42.43;26.80;;;1.60;32.60;;;;;;6235478;28;20396;-55
2021/12/07 12:03:41;;;;;;;43.63;29.73;;;1.40;31.80;;;;;;6229098;28;20388;-56
2021/12/07 12:06:47;;;;;;;40.17;27.40;;;1.40;31.10;;;;;;6220369;28;20262;-54
2021/12/07 12:09:52;;;;;;;41.57;28.17;;;1.40;33.90;;;;;;6229157;28;20283;-56
2021/12/07 12:13:12;;;;;;;45.70;28.43;;;1.60;35.20;;;;;;6237461;28;20316;-54
2021/12/07 12:16:22;;;;;;;42.50;28.30;;;1.50;35.40;;;;;;6234511;28;20747;-56
2021/12/07 12:19:32;;;;;;;43.77;28.57;;;1.70;33.40;;;;;;6234670;28;20235;-56
2021/12/07 12:22:38;;;;;;;49.67;28.47;;;1.60;32.20;;;;;;6232210;28;20226;-56
2021/12/07 12:25:41;;;;;;;46.07;29.87;;;1.70;33.00;;;;;;6224126;28;20239;-54
2021/12/07 12:28:47;;;;;;;44.13;28.47;;;1.40;31.70;;;;;;6235290;28;20356;-55
2021/12/07 12:31:52;;;;;;;45.53;27.90;;;1.70;33.10;;;;;;6235063;28;20397;-53
2021/12/07 12:34:59;;;;;;;44.00;28.87;;;1.60;33.10;;;;;;6231538;28;20269;-56
2021/12/07 12:38:03;;;;;;;46.27;28.63;;;1.60;33.30;;;;;;6233649;28;20659;-56
2021/12/07 12:41:09;;;;;;;44.70;28.60;;;1.50;33.30;;;;;;6222666;28;20254;-51
2021/12/07 12:44:15;;;;;;;45.33;29.37;;;1.30;33.40;;;;;;6225811;28;20814;-54
2021/12/07 12:47:20;;;;;;;41.17;28.83;;;1.60;34.90;;;;;;6235411;28;20239;-54
2021/12/07 12:50:25;;;;;;;45.50;29.87;;;1.80;35.60;;;;;;6235346;28;20769;-54
2021/12/07 12:53:31;;;;;;;43.40;28.87;;;1.60;35.10;;;;;;6230731;28;20238;-54
2021/12/07 12:56:36;;;;;;;43.63;28.53;;;1.50;34.30;;;;;;6235165;28;20284;-54
2021/12/07 12:59:43;;;;;;;46.10;30.30;;;1.70;35.60;;;;;;6234148;28;20246;-54
2021/12/07 13:02:51;;;;;;;43.13;28.97;;;1.70;35.30;;;;;;6232316;28;20421;-54
2021/12/07 13:05:59;;;;;;;45.93;29.60;;;1.70;33.50;;;;;;6236975;28;20246;-53
2021/12/07 13:09:06;;;;;;;46.87;29.20;;;1.80;34.70;;;;;;6229867;28;20389;-54
2021/12/07 13:12:13;;;;;;;50.87;30.27;;;1.90;35.00;;;;;;6233271;28;20312;-54
2021/12/07 13:15:20;;;;;;;46.03;28.73;;;1.70;34.30;;;;;;6237157;28;20506;-55
2021/12/07 13:18:28;;;;;;;44.17;29.30;;;1.80;33.10;;;;;;6229761;28;20341;-55
2021/12/07 13:21:36;;;;;;;46.30;29.37;;;1.90;32.80;;;;;;6235972;28;20531;-55
2021/12/07 13:24:41;;;;;;;42.40;28.20;;;1.90;32.50;;;;;;6234049;28;20230;-54
2021/12/07 13:28:11;;;;;;;44.20;28.40;;;1.90;30.00;;;;;;6234156;28;20301;-54
2021/12/07 13:31:18;;;;;;;45.60;28.83;;;1.90;31.60;;;;;;6238319;28;20234;-53
2021/12/07 13:34:26;;;;;;;44.63;28.17;;;2.00;29.90;;;;;;6235392;28;20450;-55
2021/12/07 13:37:44;;;;;;;45.10;27.30;;;1.90;29.40;;;;;;6234132;28;20242;-54
2021/12/07 13:40:50;;;;;;;40.53;27.73;;;1.90;29.00;;;;;;6226875;28;20249;-57
2021/12/07 13:43:53;;;;;;;42.37;27.50;;;1.90;29.10;;;;;;6233108;28;20369;-54
2021/12/07 13:47:01;;;;;;;43.50;28.63;;;1.70;29.70;;;;;;6234422;28;20235;-54
2021/12/07 13:50:08;;;;;;;46.27;28.43;;;1.60;30.10;;;;;;6232903;28;20226;-54
2021/12/07 13:53:11;;;;;;;44.60;27.33;;;1.60;30.80;;;;;;6234180;28;20734;-54
2021/12/07 13:56:14;;;;;;;44.33;27.90;;;1.60;31.90;;;;;;6238066;28;20380;-54
2021/12/07 13:59:21;;;;;;;42.37;26.97;;;1.30;33.30;;;;;;6236091;28;20230;-54
2021/12/07 14:02:25;;;;;;;40.77;26.43;;;1.30;34.50;;;;;;6235664;28;20339;-55
2021/12/07 14:05:30;;;;;;;40.50;26.60;;;1.60;33.80;;;;;;6233077;28;20250;-58
2021/12/07 14:08:33;;;;;;;43.27;27.03;;;1.30;34.90;;;;;;6237598;28;20317;-54
2021/12/07 14:11:38;;;;;;;42.07;28.30;;;1.20;35.70;;;;;;6226758;28;20246;-54
2021/12/07 14:14:40;;;;;;;43.27;26.83;;;1.30;38.80;;;;;;6232223;28;20385;-53
2021/12/07 14:17:49;;;;;;;47.80;28.77;;;1.10;38.40;;;;;;6238804;28;20230;-53
2021/12/07 14:20:55;;;;;;;43.13;29.30;;;1.50;39.40;;;;;;6240031;28;20322;-55
2021/12/07 14:24:04;;;;;;;44.43;29.20;;;1.50;38.10;;;;;;6239304;28;20369;-56
2021/12/07 14:27:07;;;;;;;47.97;28.00;;;1.40;37.00;;;;;;6243423;28;20239;-55
2021/12/07 14:30:12;;;;;;;46.93;29.10;;;1.30;36.90;;;;;;6239384;28;20261;-54
2021/12/07 14:33:17;;;;;;;41.93;27.43;;;1.50;37.30;;;;;;6237022;28;20789;-55
2021/12/07 14:36:25;;;;;;;42.70;27.83;;;1.40;36.70;;;;;;6226490;28;20719;-55
2021/12/07 14:39:30;;;;;;;43.20;27.47;;;1.50;36.20;;;;;;6238272;28;20775;-54
2021/12/07 14:42:33;;;;;;;42.40;26.77;;;1.40;36.00;;;;;;6234952;28;20492;-54
2021/12/07 14:45:37;;;;;;;42.77;26.93;;;1.40;36.10;;;;;;6238958;28;20238;-54
2021/12/07 14:48:42;;;;;;;39.00;26.50;;;1.50;35.90;;;;;;6232298;28;20304;-57
2021/12/07 14:51:46;;;;;;;40.00;25.97;;;1.30;37.00;;;;;;6237221;28;20234;-54
2021/12/07 14:54:52;;;;;;;42.50;26.57;;;1.40;38.70;;;;;;6237267;28;20230;-55
2021/12/07 14:57:54;;;;;;;42.33;27.93;;;1.40;38.20;;;;;;6238386;28;20501;-54
2021/12/07 15:00:57;;;;;;;43.33;27.90;;;1.30;37.00;;;;;;6233423;28;20323;-54
2021/12/07 15:04:04;;;;;;;46.23;28.57;;;0.70;36.60;;;;;;6237066;28;20698;-54
2021/12/07 15:07:14;;;;;;;49.70;28.03;;;1.30;38.00;;;;;;6237556;28;20703;-54
2021/12/07 15:10:18;;;;;;;46.60;27.77;;;1.30;37.50;;;;;;6237272;28;20325;-54
2021/12/07 15:13:22;;;;;;;37.30;25.70;;;1.20;38.80;;;;;;6237226;28;20300;-54
2021/12/07 15:16:25;;;;;;;42.20;26.73;;;1.10;39.90;;;;;;6234170;28;20234;-54
2021/12/07 15:19:30;;;;;;;44.73;27.40;;;1.30;38.70;;;;;;6234661;28;20320;-55
2021/12/07 15:22:33;;;;;;;48.87;28.93;;;1.30;38.40;;;;;;6232797;28;20266;-55
2021/12/07 15:25:40;;;;;;;47.53;29.77;;;1.50;37.70;;;;;;6238628;28;20856;-55
2021/12/07 15:28:59;;;;;;;44.53;28.47;;;1.50;38.90;;;;;;6225818;28;20257;-55
2021/12/07 15:32:04;;;;;;;45.90;29.07;;;1.50;38.70;;;;;;6231041;28;20231;-55
2021/12/07 15:35:08;;;;;;;43.67;27.63;;;1.30;39.50;;;;;;6235096;28;20634;-52
2021/12/07 15:38:15;;;;;;;55.80;32.13;;;1.30;39.10;;;;;;6236464;28;20314;-55
2021/12/07 15:41:17;;;;;;;68.83;36.60;;;1.20;40.30;;;;;;6232141;28;20317;-56
2021/12/07 15:44:25;;;;;;;52.37;31.70;;;1.30;40.60;;;;;;6231427;28;20600;-54
2021/12/07 15:47:31;;;;;;;46.47;29.70;;;1.40;40.20;;;;;;6226905;28;20259;-56
2021/12/07 15:50:38;;;;;;;44.57;28.03;;;1.30;40.10;;;;;;6235180;28;20229;-55
2021/12/07 15:53:40;;;;;;;38.97;26.13;;;1.10;38.60;;;;;;6231461;28;20288;-56
2021/12/07 15:56:43;;;;;;;43.17;27.20;;;1.10;36.70;;;;;;6236124;28;20253;-56
2021/12/07 15:59:57;;;;;;;40.03;26.40;;;1.40;37.00;;;;;;6229564;28;20237;-55
2021/12/07 16:03:02;;;;;;;45.00;26.80;;;1.30;38.30;;;;;;6230026;28;20316;-54
2021/12/07 16:06:27;;;;;;;39.10;26.40;;;1.40;37.40;;;;;;6234388;28;20772;-55
2021/12/07 16:09:30;;;;;;;49.27;30.77;;;1.50;37.40;;;;;;6230174;28;20242;-54
2021/12/07 16:12:33;;;;;;;43.70;27.83;;;1.30;39.60;;;;;;6236452;28;20280;-55
2021/12/07 16:15:36;;;;;;;46.93;28.90;;;1.30;39.80;;;;;;6235156;28;20559;-54
2021/12/07 16:18:39;;;;;;;47.73;28.37;;;1.30;39.80;;;;;;6236909;28;20280;-55
2021/12/07 16:21:44;;;;;;;39.37;26.70;;;1.30;40.30;;;;;;6235697;28;20227;-55
2021/12/07 16:24:47;;;;;;;43.53;27.93;;;1.30;38.60;;;;;;6234406;28;20311;-56
2021/12/07 16:27:50;;;;;;;40.97;28.43;;;1.50;38.00;;;;;;6230091;28;20250;-54
2021/12/07 16:30:53;;;;;;;42.73;27.00;;;1.40;38.20;;;;;;6227848;28;20319;-54
2021/12/07 16:33:59;;;;;;;43.57;28.27;;;1.00;39.00;;;;;;6240495;28;20317;-55
2021/12/07 16:37:03;;;;;;;45.67;27.20;;;1.50;40.60;;;;;;6229245;28;20279;-53
2021/12/07 16:40:08;;;;;;;48.00;29.00;;;1.30;39.90;;;;;;6230954;28;20231;-55
2021/12/07 16:43:10;;;;;;;37.63;24.63;;;1.10;39.70;;;;;;6235392;28;20228;-55
2021/12/07 16:46:15;;;;;;;45.73;28.13;;;1.30;39.70;;;;;;6231032;28;20787;-55
2021/12/07 16:49:18;;;;;;;44.07;27.67;;;1.30;40.20;;;;;;6234381;28;20317;-55
2021/12/07 16:52:22;;;;;;;48.13;28.10;;;1.20;40.90;;;;;;6229986;28;20334;-54
2021/12/07 16:55:25;;;;;;;42.23;28.03;;;1.20;40.50;;;;;;6233112;28;20254;-54